createdAt,value
2022-11-03T00:01:45.067Z,27.83
2022-11-03T00:06:51.807Z,25.23
2022-11-03T00:11:59.379Z,25.85
2022-11-03T00:17:04.359Z,24.98
2022-11-03T00:22:09.295Z,24.13
2022-11-03T00:27:16.882Z,24.05
2022-11-03T00:32:21.860Z,24.75
2022-11-03T00:37:26.863Z,24.88
2022-11-03T00:42:35.265Z,25.45
2022-11-03T00:48:01.160Z,26.25
2022-11-03T00:53:06.326Z,24.48
2022-11-03T00:58:14.137Z,26.05
2022-11-03T01:03:19.102Z,28.45
2022-11-03T01:08:26.681Z,31.10
2022-11-03T01:13:35.349Z,34.70
2022-11-03T01:18:40.297Z,37.17
2022-11-03T01:23:45.507Z,37.60
2022-11-03T01:28:53.070Z,35.70
2022-11-03T01:33:59.033Z,36.95
2022-11-03T01:39:03.975Z,37.10
2022-11-03T01:44:33.055Z,38.88
2022-11-03T01:49:43.350Z,38.15
2022-11-03T01:54:51.895Z,41.40
2022-11-03T02:00:01.136Z,42.33
2022-11-03T02:05:07.393Z,40.60
2022-11-03T02:10:12.721Z,41.25
2022-11-03T02:15:22.410Z,40.53
2022-11-03T02:20:29.317Z,39.25
2022-11-03T02:25:47.506Z,37.10
2022-11-03T02:30:57.619Z,39.63
2022-11-03T02:41:11.524Z,37.80
2022-11-03T02:46:18.447Z,36.08
2022-11-03T02:51:23.493Z,36.15
2022-11-03T02:56:31.877Z,33.22
2022-11-03T03:01:47.600Z,31.75
2022-11-03T03:06:55.708Z,31.73
2022-11-03T03:12:03.944Z,31.40
2022-11-03T03:17:12.100Z,34.03
2022-11-03T03:22:21.455Z,31.00
2022-11-03T03:27:31.219Z,30.93
2022-11-03T03:32:40.119Z,30.63
2022-11-03T03:37:48.009Z,33.20
2022-11-03T03:42:56.200Z,32.20
2022-11-03T03:48:01.444Z,36.05
2022-11-03T03:53:08.437Z,33.13
2022-11-03T03:58:17.593Z,33.28
2022-11-03T04:03:24.797Z,36.97
2022-11-03T04:08:29.768Z,37.25
2022-11-03T04:13:49.677Z,39.03
2022-11-03T04:19:06.952Z,41.40
2022-11-03T04:24:11.961Z,46.63
2022-11-03T04:29:19.924Z,47.67
2022-11-03T04:34:24.981Z,48.15
2022-11-03T04:39:29.989Z,49.90
2022-11-03T04:44:37.645Z,47.88
2022-11-03T04:49:42.803Z,45.53
2022-11-03T04:54:48.373Z,43.83
2022-11-03T04:59:55.957Z,43.90
2022-11-03T05:05:00.965Z,44.75
2022-11-03T05:10:06.666Z,44.95
2022-11-03T05:15:30.553Z,43.58
2022-11-03T05:20:39.508Z,39.00
2022-11-03T05:25:46.562Z,38.30
2022-11-03T05:30:54.920Z,43.50
2022-11-03T05:36:02.528Z,43.63
2022-11-03T05:41:16.744Z,44.75
2022-11-03T05:46:24.372Z,45.70
2022-11-03T05:51:35.091Z,45.45
2022-11-03T05:56:40.054Z,53.88
2022-11-03T06:01:47.748Z,53.28
2022-11-03T06:06:55.674Z,51.00
2022-11-03T06:12:02.447Z,43.88
2022-11-03T06:17:14.355Z,40.00
2022-11-03T06:22:24.575Z,43.85
2022-11-03T06:32:37.419Z,53.20
2022-11-03T06:37:42.451Z,52.20
2022-11-03T06:42:47.481Z,49.47
2022-11-03T06:47:56.114Z,48.25
2022-11-03T06:53:02.092Z,63.90
2022-11-03T06:58:18.924Z,57.00
2022-11-03T07:03:30.848Z,53.05
2022-11-03T07:08:39.365Z,49.20
2022-11-03T07:13:44.977Z,49.72
2022-11-03T07:18:52.603Z,46.38
2022-11-03T07:23:57.991Z,45.00
2022-11-03T07:29:03.484Z,42.55
2022-11-03T07:34:14.682Z,36.53
2022-11-03T07:39:21.975Z,36.45
2022-11-03T07:44:27.072Z,39.17
2022-11-03T07:49:34.699Z,36.50
2022-11-03T07:54:51.381Z,34.67
2022-11-03T07:59:59.517Z,36.78
2022-11-03T08:05:08.468Z,35.72
2022-11-03T08:10:13.963Z,32.45
2022-11-03T08:15:19.317Z,33.50
2022-11-03T08:20:26.934Z,35.88
2022-11-03T08:25:31.923Z,36.38
2022-11-03T08:30:37.380Z,40.38
2022-11-03T08:35:45.009Z,35.63
2022-11-03T08:40:55.212Z,36.70
2022-11-03T08:46:09.639Z,36.60
2022-11-03T08:51:23.378Z,43.85
2022-11-03T08:56:29.840Z,36.15
2022-11-03T09:01:35.077Z,35.67
2022-11-03T09:06:42.699Z,34.60
2022-11-03T09:11:47.713Z,32.40
2022-11-03T09:16:52.789Z,31.10
2022-11-03T09:22:00.560Z,27.98
2022-11-03T09:27:05.785Z,27.15
2022-11-03T09:32:11.137Z,25.73
2022-11-03T09:37:18.957Z,25.08
2022-11-03T09:42:24.052Z,24.02
2022-11-03T09:47:35.408Z,25.65
2022-11-03T09:52:47.376Z,24.95
2022-11-03T09:57:56.049Z,24.08
2022-11-03T10:03:01.078Z,25.30
2022-11-03T10:08:11.191Z,24.20
2022-11-03T10:13:24.503Z,24.48
2022-11-03T10:18:30.219Z,25.90
2022-11-03T10:23:37.817Z,26.60
2022-11-03T10:28:43.092Z,23.52
2022-11-03T10:33:55.275Z,22.33
2022-11-03T10:39:26.585Z,22.52
2022-11-03T10:44:35.461Z,23.45
2022-11-03T10:49:43.967Z,23.20
2022-11-03T10:54:52.456Z,28.73
2022-11-03T10:59:59.087Z,32.58
2022-11-03T11:05:05.372Z,36.40
2022-11-03T11:10:18.166Z,32.60
2022-11-03T11:15:39.032Z,34.28
2022-11-03T11:20:44.980Z,17.60
2022-11-03T11:26:19.028Z,16.95
2022-11-03T11:31:42.409Z,14.68
2022-11-03T11:36:48.848Z,14.27
2022-11-03T11:42:17.571Z,15.25
2022-11-03T11:47:25.938Z,15.27
2022-11-03T11:52:31.288Z,13.32
2022-11-03T11:57:41.428Z,13.98
2022-11-03T12:02:52.014Z,15.20
2022-11-03T12:07:57.949Z,15.32
2022-11-03T12:13:38.649Z,13.25
2022-11-03T12:18:50.544Z,14.55
2022-11-03T12:23:56.406Z,14.05
2022-11-03T12:29:04.045Z,13.02
2022-11-03T12:34:08.996Z,12.75
2022-11-03T12:39:14.494Z,11.93
2022-11-03T12:44:22.097Z,11.38
2022-11-03T12:49:27.654Z,11.65
2022-11-03T12:54:32.743Z,10.50
2022-11-03T12:59:40.847Z,10.80
2022-11-03T13:04:45.818Z,10.48
2022-11-03T13:09:50.761Z,10.65
2022-11-03T13:14:58.313Z,11.82
2022-11-03T13:20:03.385Z,14.57
2022-11-03T13:25:12.423Z,10.98
2022-11-03T13:30:20.294Z,13.40
2022-11-03T13:35:25.895Z,12.48
2022-11-03T13:46:02.650Z,11.88
2022-11-03T13:51:10.681Z,13.13
2022-11-03T13:56:21.415Z,12.68
2022-11-03T14:01:30.322Z,12.40
2022-11-03T14:06:36.786Z,13.70
2022-11-03T14:11:53.883Z,12.98
2022-11-03T14:17:02.182Z,13.55
2022-11-03T14:22:07.320Z,15.15
2022-11-03T14:27:13.015Z,15.05
2022-11-03T14:32:21.761Z,12.52
2022-11-03T14:37:27.038Z,12.57
2022-11-03T14:42:32.617Z,13.48
2022-11-03T14:47:40.191Z,12.68
2022-11-03T14:52:45.726Z,14.10
2022-11-03T14:57:50.734Z,20.67
2022-11-03T15:02:59.101Z,17.10
2022-11-03T15:08:04.667Z,18.23
2022-11-03T15:13:10.411Z,21.88
2022-11-03T15:18:18.230Z,38.70
2022-11-03T15:28:48.272Z,28.60
2022-11-03T15:33:55.914Z,20.00
2022-11-03T15:39:00.880Z,21.98
2022-11-03T15:44:06.023Z,15.27
2022-11-03T15:49:13.974Z,20.75
2022-11-03T15:54:19.025Z,16.67
2022-11-03T15:59:24.113Z,17.80
2022-11-03T16:04:31.725Z,16.88
2022-11-03T16:09:36.772Z,15.55
2022-11-03T16:14:41.752Z,15.25
2022-11-03T16:19:49.819Z,17.30
2022-11-03T16:24:54.955Z,17.27
2022-11-03T16:30:00.127Z,16.98
2022-11-03T16:35:08.730Z,17.50
2022-11-03T16:40:18.943Z,17.55
2022-11-03T16:45:26.702Z,17.05
2022-11-03T16:50:35.645Z,17.80
2022-11-03T16:55:40.749Z,18.05
2022-11-03T17:00:46.478Z,17.30
2022-11-03T17:05:54.740Z,14.93
2022-11-03T17:10:59.849Z,16.02
2022-11-03T17:16:04.965Z,15.13
2022-11-03T17:21:18.609Z,15.40
2022-11-03T17:26:26.645Z,14.85
2022-11-03T17:31:34.736Z,15.15
2022-11-03T17:36:42.784Z,16.25
2022-11-03T17:41:47.806Z,17.92
2022-11-03T17:46:52.800Z,19.95
2022-11-03T17:52:00.574Z,19.05
2022-11-03T17:57:07.000Z,17.63
2022-11-03T18:02:17.609Z,18.90
2022-11-03T18:07:29.242Z,16.60
2022-11-03T18:12:50.785Z,18.30
2022-11-03T18:17:56.228Z,16.38
2022-11-03T18:23:15.778Z,15.38
2022-11-03T18:28:20.866Z,16.55
2022-11-03T18:33:27.907Z,17.67
2022-11-03T18:38:38.573Z,15.85
2022-11-03T18:43:43.974Z,15.70
2022-11-03T18:48:49.034Z,17.13
2022-11-03T18:53:56.750Z,17.20
2022-11-03T18:59:01.794Z,22.85
2022-11-03T19:04:10.918Z,20.63
2022-11-03T19:09:20.435Z,19.13
2022-11-03T19:14:26.995Z,21.97
2022-11-03T19:19:32.099Z,20.35
2022-11-03T19:24:39.887Z,21.02
2022-11-03T19:29:45.528Z,19.77
2022-11-03T19:34:52.890Z,19.25
2022-11-03T19:40:01.042Z,20.80
2022-11-03T19:45:07.879Z,20.77
2022-11-03T19:50:21.394Z,20.65
2022-11-03T19:55:32.564Z,20.38
2022-11-03T20:00:37.878Z,25.90
2022-11-03T20:05:48.804Z,24.23
2022-11-03T20:10:58.619Z,21.75
2022-11-03T20:16:03.588Z,20.08
2022-11-03T20:21:09.346Z,21.63
2022-11-03T20:26:20.945Z,23.75
2022-11-03T20:31:26.084Z,21.38
2022-11-03T20:36:34.149Z,21.60
2022-11-03T20:41:45.644Z,24.90
2022-11-03T20:46:50.659Z,24.35
2022-11-03T20:51:55.861Z,24.23
2022-11-03T20:57:23.908Z,23.42
2022-11-03T21:02:29.030Z,26.58
2022-11-03T21:07:35.559Z,29.35
2022-11-03T21:12:43.470Z,25.35
2022-11-03T21:18:00.769Z,26.23
2022-11-03T21:23:09.652Z,23.25
2022-11-03T21:28:17.470Z,22.65
2022-11-03T21:33:22.706Z,24.02
2022-11-03T21:38:27.824Z,23.63
2022-11-03T21:43:47.788Z,21.48
2022-11-03T21:49:20.108Z,23.03
2022-11-03T21:54:25.244Z,21.95
2022-11-03T21:59:33.869Z,38.00
2022-11-03T22:04:38.989Z,33.55
2022-11-03T22:09:44.107Z,25.98
2022-11-03T22:15:04.078Z,22.95
2022-11-03T22:20:22.292Z,20.57
2022-11-03T22:25:39.590Z,22.15
2022-11-03T22:30:59.476Z,19.85
2022-11-03T22:36:21.593Z,19.87
2022-11-03T22:41:39.321Z,23.90
2022-11-03T22:46:46.883Z,21.60
2022-11-03T22:51:51.827Z,20.88
2022-11-03T22:56:56.812Z,21.10
2022-11-03T23:02:04.517Z,19.50
2022-11-03T23:07:09.582Z,21.40
2022-11-03T23:12:14.618Z,19.90
2022-11-03T23:19:47.260Z,19.80
2022-11-03T23:23:50.597Z,19.88
2022-11-03T23:28:55.677Z,18.95
2022-11-03T23:34:03.532Z,20.05
2022-11-03T23:39:09.386Z,19.02
2022-11-03T23:44:14.919Z,18.98
2022-11-03T23:49:22.524Z,17.70
2022-11-03T23:54:27.527Z,18.23
2022-11-03T23:59:34.173Z,18.23
